Hlavní strana
METAR-TAF:

METAR-TAF

Letiště :

Rabat, Maroko

zeměpisná šířka: 34-03N, zeměpisná délka: 006-46W, výška: 84 m

Aktuální stav počasí

Zpráva byla vytvořena před 34 minutami, v 08:00 UTC
vítr z různých směrů 2 kt
Teplota 8°C
Vlhkost vzduchu 93%
Tlak 1024 hPa
Viditelnost: 5000 m
Skoro jasno ve výšce 1000 ft

METAR: GMME 100800Z VRB02KT 5000 R21/0650VP2000D FEW010 08/07 Q1024 NOSIG

Čas: 08:34 (08:34 UTC)

Předpověď počasí

Zpráva byla vytvořena před 3 hodinami a 34 minutami, v 05:00 UTC
Předpověď platná od 10 v 06 UTC do 11 v 12 UTC
Západní vítr 10 kt
Viditelnost 10 km a více
Žádná oblačnost pod 1500 m, nevyskytují se cumulonimby.
Dočasný
od 10 v 18 UTC do 10 v 24 UTC
Jihozápadní vítr 4 kt
Viditelnost: 5000 m
Polojasno ve výšce 1000 ft
Polojasno ve výšce 1500 ft

TAF: GMME 100500Z 1006/1112 28010KT CAVOK TEMPO 1018/1024 22004KT 5000 SCT010 SCT015

Stav a předpovědi počasí z více než 4 000 letišť (zprávy METAR a TAF).

Červené a žluté tečky na mapě představují dostupné meteorologické stanice.

Když kurzor umístíte na tečku, zobrazí se název stanice.

Pak kliknutím zobrazíte stav a předpověď počasí.

Chcete-li změnit mapu, kliknutím na zelené tlačítko se znaménkem +mapu přiblížíte, kliknutím na zelené tlačítko se znaménkem – mapu oddálíte a kliknutím na zelené šipky přejdete na sousední mapy.


METAR-TAF: